Time;durP1;ratioP1;P1;durP2;ratioP2;P2;SDS_P1;SDS_P2;PMS_P1;PMS_P2;Temp;Humidity;BMP_temperature;BMP_pressure;BME280_temperature;BME280_humidity;BME280_pressure;Samples;Min_cycle;Max_cycle;Signal;HPM_P1;HPM_P2
2023/01/28 00:01:14;;;;;;;0.00;0.00;;;;;;;3.79;55.91;94464.56;4971268;28;20203;-62
2023/01/28 00:03:41;;;;;;;0.00;0.00;;;;;;;3.25;56.34;94468.16;4971998;28;20199;-64
2023/01/28 00:06:12;;;;;;;0.00;0.00;;;;;;;3.38;56.70;94480.91;4971270;28;20290;-62
2023/01/28 00:08:39;;;;;;;0.00;0.00;;;;;;;3.80;56.10;94476.50;4971854;28;20203;-64
2023/01/28 00:11:07;;;;;;;0.00;0.00;;;;;;;4.40;54.38;94467.47;4971386;28;20681;-64
2023/01/28 00:13:34;;;;;;;0.13;0.13;;;;;;;4.02;54.79;94490.50;4971884;28;20326;-64
2023/01/28 00:16:07;;;;;;;3.40;2.47;;;;;;;4.58;53.94;94487.31;4971251;28;20698;-65
2023/01/28 00:18:35;;;;;;;0.90;0.90;;;;;;;4.99;53.07;94495.69;4971723;28;20200;-65
2023/01/28 00:21:08;;;;;;;0.10;0.10;;;;;;;4.74;53.49;94495.19;4971663;28;20567;-63
2023/01/28 00:23:37;;;;;;;0.00;0.00;;;;;;;5.01;52.90;94501.44;4971317;28;20203;-64
2023/01/28 00:26:10;;;;;;;0.00;0.00;;;;;;;4.59;53.26;94497.47;4971288;28;20277;-62
2023/01/28 00:28:41;;;;;;;1.20;0.95;;;;;;;4.91;52.41;94498.63;4971524;28;20428;-63
2023/01/28 00:31:17;;;;;;;1.45;0.85;;;;;;;4.64;52.98;94505.34;4957817;28;20200;-63
2023/01/28 00:33:46;;;;;;;0.00;0.00;;;;;;;4.53;53.28;94506.16;4950766;28;20239;-64
2023/01/28 00:36:14;;;;;;;0.00;0.00;;;;;;;4.59;53.29;94505.25;4964917;28;20203;-64
2023/01/28 00:38:48;;;;;;;0.00;0.00;;;;;;;4.60;53.39;94509.41;4979357;28;20215;-66
2023/01/28 00:41:17;;;;;;;0.00;0.00;;;;;;;4.55;52.79;94508.50;4965354;28;20203;-62
2023/01/28 00:43:44;;;;;;;0.05;0.05;;;;;;;4.64;53.39;94515.72;4971565;28;20195;-65
2023/01/28 00:46:12;;;;;;;0.00;0.00;;;;;;;4.43;53.36;94508.53;4970678;28;20203;-66
2023/01/28 00:48:41;;;;;;;0.00;0.00;;;;;;;4.54;52.91;94510.34;4971719;28;20247;-64
2023/01/28 00:51:10;;;;;;;0.43;0.25;;;;;;;4.40;53.71;94508.97;4970564;28;20195;-65
2023/01/28 00:53:37;;;;;;;0.00;0.00;;;;;;;4.58;52.99;94502.91;4971412;28;20233;-64
2023/01/28 00:56:05;;;;;;;0.00;0.00;;;;;;;4.45;53.41;94521.28;4970660;28;20195;-62
2023/01/28 00:58:33;;;;;;;0.00;0.00;;;;;;;4.58;53.96;94519.22;4970586;28;20274;-64
2023/01/28 01:01:10;;;;;;;0.00;0.00;;;;;;;4.52;53.00;94512.38;4970439;28;20262;-64
2023/01/28 01:03:38;;;;;;;0.00;0.00;;;;;;;4.12;53.68;94516.66;4956712;28;20582;-65
2023/01/28 01:06:05;;;;;;;3.63;2.05;;;;;;;4.27;53.90;94519.56;4969870;28;20223;-64
2023/01/28 01:08:38;;;;;;;0.00;0.00;;;;;;;4.62;53.46;94512.56;4970454;28;20219;-66
2023/01/28 01:11:06;;;;;;;0.00;0.00;;;;;;;4.68;53.32;94514.28;4970155;28;20623;-66
2023/01/28 01:13:33;;;;;;;3.03;2.13;;;;;;;4.72;52.76;94507.59;4970428;28;20191;-67
2023/01/28 01:16:06;;;;;;;0.00;0.00;;;;;;;4.19;53.85;94516.53;4959817;28;20211;-65
2023/01/28 01:18:34;;;;;;;1.08;1.00;;;;;;;4.28;54.03;94520.38;4966407;28;20235;-67
2023/01/28 01:21:01;;;;;;;0.08;0.08;;;;;;;4.46;53.32;94518.47;4975109;28;20200;-65
2023/01/28 01:23:29;;;;;;;0.00;0.00;;;;;;;4.76;53.17;94519.09;4968724;28;20202;-64
2023/01/28 01:25:57;;;;;;;0.00;0.00;;;;;;;4.35;53.56;94521.84;4968303;28;20294;-63
2023/01/28 01:28:24;;;;;;;0.55;0.55;;;;;;;4.36;53.86;94528.59;4956205;28;20607;-64
2023/01/28 01:31:02;;;;;;;0.38;0.38;;;;;;;4.13;54.46;94528.59;4959086;28;20665;-64
2023/01/28 01:33:29;;;;;;;0.00;0.00;;;;;;;4.73;53.36;94534.34;4965841;28;20207;-65
2023/01/28 01:35:58;;;;;;;0.73;0.73;;;;;;;4.44;53.23;94525.69;4962211;28;20191;-65
2023/01/28 01:38:26;;;;;;;1.27;1.08;;;;;;;4.40;53.49;94532.31;4984736;28;20687;-64
2023/01/28 01:41:00;;;;;;;0.08;0.08;;;;;;;4.60;53.37;94524.97;4969514;28;20278;-64
2023/01/28 01:43:51;;;;;;;0.50;0.50;;;;;;;4.68;53.17;94522.06;4949715;28;20207;-64
2023/01/28 01:46:25;;;;;;;0.00;0.00;;;;;;;4.46;53.16;94525.44;4966467;28;20207;-63
2023/01/28 01:48:56;;;;;;;0.28;0.28;;;;;;;4.25;53.93;94537.19;4970157;28;20249;-64
2023/01/28 01:51:29;;;;;;;0.00;0.00;;;;;;;4.40;54.05;94528.97;4969382;28;20659;-64
2023/01/28 01:53:58;;;;;;;1.02;1.00;;;;;;;4.53;52.90;94529.50;4955769;28;20214;-64
2023/01/28 01:56:31;;;;;;;0.00;0.00;;;;;;;5.32;51.98;94531.38;4984294;28;20603;-66
2023/01/28 01:59:00;;;;;;;0.00;0.00;;;;;;;4.71;52.87;94521.59;4971604;28;20649;-66
2023/01/28 02:01:30;;;;;;;0.00;0.00;;;;;;;4.57;52.86;94503.88;4969941;28;20199;-63
2023/01/28 02:04:00;;;;;;;0.00;0.00;;;;;;;4.48;53.57;94534.59;4955515;28;20203;-66
2023/01/28 02:06:28;;;;;;;0.00;0.00;;;;;;;4.79;52.84;94533.44;4969783;28;20195;-64
2023/01/28 02:08:56;;;;;;;2.08;1.25;;;;;;;5.03;52.54;94533.16;4970092;28;20219;-64
2023/01/28 02:11:28;;;;;;;0.22;0.22;;;;;;;4.82;52.54;94543.34;4957551;28;20212;-63
2023/01/28 02:13:57;;;;;;;0.15;0.15;;;;;;;4.98;51.94;94532.28;4968559;28;20782;-64
2023/01/28 02:16:27;;;;;;;0.15;0.15;;;;;;;4.67;52.73;94536.03;4955622;28;20208;-64
2023/01/28 02:18:54;;;;;;;0.73;0.73;;;;;;;5.04;52.21;94542.53;4957526;28;20620;-66
2023/01/28 02:21:58;;;;;;;0.08;0.08;;;;;;;5.28;52.01;94542.44;4969468;28;20208;-66
2023/01/28 02:24:46;;;;;;;0.43;0.28;;;;;;;5.49;51.32;94544.41;4971893;28;20896;-66
2023/01/28 02:27:30;;;;;;;0.00;0.00;;;;;;;5.17;51.16;94546.66;4965261;28;20601;-65
2023/01/28 02:30:20;;;;;;;0.10;0.10;;;;;;;4.97;51.92;94552.25;4965086;28;20245;-64
2023/01/28 02:33:10;;;;;;;0.00;0.00;;;;;;;4.97;52.18;94544.47;4956032;28;20286;-66
2023/01/28 02:35:48;;;;;;;0.00;0.00;;;;;;;5.28;51.15;94537.25;4959441;28;20619;-66
2023/01/28 02:38:38;;;;;;;0.00;0.00;;;;;;;5.19;51.23;94544.63;4968469;28;20226;-66
2023/01/28 02:41:18;;;;;;;1.30;1.20;;;;;;;5.08;51.63;94546.25;4968955;28;20218;-66
2023/01/28 02:43:46;;;;;;;0.00;0.00;;;;;;;5.21;51.64;94544.41;4959797;28;20212;-65
2023/01/28 02:49:25;;;;;;;0.00;0.00;;;;;;;5.44;51.00;94557.31;4969655;28;20258;-65
2023/01/28 02:52:18;;;;;;;0.00;0.00;;;;;;;5.33;50.81;94551.13;4954575;28;20314;-65
2023/01/28 02:54:58;;;;;;;0.00;0.00;;;;;;;4.98;51.19;94553.81;4948988;28;20204;-65
2023/01/28 02:57:51;;;;;;;0.20;0.20;;;;;;;4.86;51.68;94552.25;4967405;28;20211;-65
2023/01/28 03:00:24;;;;;;;0.00;0.00;;;;;;;4.99;51.55;94547.63;4971601;28;20200;-65
2023/01/28 03:02:58;;;;;;;1.75;0.90;;;;;;;5.08;51.15;94554.03;4957422;28;20238;-65
2023/01/28 03:06:05;;;;;;;0.73;0.73;;;;;;;4.98;51.10;94553.03;4969287;28;20299;-65
2023/01/28 03:38:22;;;;;;;0.15;0.15;;;;;;;4.17;52.51;94566.03;4970930;28;20207;-66
2023/01/28 03:40:59;;;;;;;0.00;0.00;;;;;;;4.70;51.63;94561.53;4972337;28;20567;-66
2023/01/28 03:43:29;;;;;;;0.00;0.00;;;;;;;4.32;52.03;94563.00;4951378;28;20238;-64
2023/01/28 03:45:56;;;;;;;0.00;0.00;;;;;;;3.76;53.23;94568.66;4965640;28;20253;-61
2023/01/28 03:48:25;;;;;;;0.00;0.00;;;;;;;4.11;52.90;94559.13;4970080;28;20231;-67
2023/01/28 03:50:55;;;;;;;0.00;0.00;;;;;;;4.18;53.00;94572.78;4966347;28;20548;-65
2023/01/28 03:53:23;;;;;;;0.15;0.15;;;;;;;4.37;52.72;94576.88;4961947;28;20687;-62
2023/01/28 03:55:52;;;;;;;4.10;0.63;;;;;;;4.13;53.40;94585.63;4967814;28;20222;-66
2023/01/28 03:58:20;;;;;;;0.28;0.28;;;;;;;4.56;52.38;94570.56;4970780;28;20211;-64
2023/01/28 04:00:46;;;;;;;4.10;0.75;;;;;;;4.92;51.63;94575.53;4971367;28;20268;-66
2023/01/28 04:03:18;;;;;;;0.70;0.45;;;;;;;4.59;51.86;94570.13;4970729;28;20205;-64
2023/01/28 04:06:04;;;;;;;1.65;0.80;;;;;;;4.51;52.28;94573.03;4967068;28;20203;-63
2023/01/28 04:08:51;;;;;;;0.80;0.25;;;;;;;4.40;51.97;94571.22;4967102;28;20299;-64
2023/01/28 04:11:37;;;;;;;0.00;0.00;;;;;;;4.01;53.28;94590.78;4973073;28;20219;-65
2023/01/28 04:14:05;;;;;;;0.57;0.52;;;;;;;4.46;52.56;94591.09;4962726;28;20584;-64
2023/01/28 04:16:41;;;;;;;0.00;0.00;;;;;;;4.45;52.86;94592.13;4968725;28;20195;-65
2023/01/28 04:19:09;;;;;;;0.40;0.28;;;;;;;4.62;52.30;94587.03;4977280;28;20239;-65
2023/01/28 04:21:36;;;;;;;0.00;0.00;;;;;;;4.41;52.53;94593.59;4981491;28;20282;-65
2023/01/28 04:24:04;;;;;;;0.15;0.13;;;;;;;4.38;52.31;94593.25;4976277;28;20222;-64
2023/01/28 04:26:31;;;;;;;0.00;0.00;;;;;;;4.67;51.73;94569.75;4967120;28;20192;-65
2023/01/28 04:28:58;;;;;;;1.65;0.98;;;;;;;4.46;52.44;94593.69;4978728;28;20715;-63
2023/01/28 04:31:25;;;;;;;0.10;0.10;;;;;;;4.03;53.22;94600.97;4951191;28;20270;-65
2023/01/28 04:34:16;;;;;;;0.00;0.00;;;;;;;4.50;52.63;94602.59;4975976;28;20310;-65
2023/01/28 04:37:06;;;;;;;0.08;0.08;;;;;;;4.54;52.67;94608.94;4971510;28;20248;-62
2023/01/28 04:39:59;;;;;;;0.30;0.30;;;;;;;4.52;52.00;94610.16;4971508;28;20210;-65
2023/01/28 04:42:56;;;;;;;0.10;0.10;;;;;;;4.57;52.05;94602.50;4973280;28;20213;-66
2023/01/28 04:45:43;;;;;;;0.47;0.45;;;;;;;4.34;52.66;94621.44;4970385;28;20215;-65
2023/01/28 04:48:30;;;;;;;0.90;0.70;;;;;;;4.33;52.22;94612.06;4970766;28;20225;-65
2023/01/28 04:51:17;;;;;;;0.10;0.10;;;;;;;4.06;53.16;94621.25;4973163;28;21323;-63
2023/01/28 04:53:54;;;;;;;0.00;0.00;;;;;;;4.42;52.51;94622.88;4973320;28;20212;-64
2023/01/28 04:56:26;;;;;;;1.05;1.05;;;;;;;4.48;52.19;94625.38;4956824;28;20203;-65
2023/01/28 04:58:54;;;;;;;0.20;0.20;;;;;;;4.62;51.68;94623.34;4956381;28;20219;-66
2023/01/28 05:01:22;;;;;;;0.00;0.00;;;;;;;4.84;51.82;94632.16;4977116;28;20204;-66
2023/01/28 05:03:49;;;;;;;0.20;0.20;;;;;;;4.54;51.98;94629.69;4966530;28;20203;-65
2023/01/28 05:06:26;;;;;;;0.43;0.43;;;;;;;4.36;52.55;94636.75;4975036;28;20206;-65
2023/01/28 05:08:56;;;;;;;0.20;0.20;;;;;;;4.73;51.75;94623.38;4965912;28;20227;-65
2023/01/28 05:11:23;;;;;;;0.22;0.22;;;;;;;4.83;51.77;94639.19;4968517;28;20671;-65
2023/01/28 05:13:56;;;;;;;0.00;0.00;;;;;;;4.68;51.73;94635.44;4950403;28;20199;-66
2023/01/28 05:16:27;;;;;;;0.00;0.00;;;;;;;4.45;52.38;94646.59;4962507;28;20310;-65
2023/01/28 05:18:55;;;;;;;0.65;0.65;;;;;;;4.64;52.19;94649.88;4978571;28;20192;-65
2023/01/28 05:21:22;;;;;;;1.10;0.90;;;;;;;3.96;53.39;94654.66;4964057;28;20203;-65
2023/01/28 05:23:57;;;;;;;0.20;0.13;;;;;;;4.22;53.14;94654.31;4960651;28;20585;-64
2023/01/28 05:26:24;;;;;;;0.38;0.30;;;;;;;3.94;53.96;94656.72;4961349;28;20323;-65
2023/01/28 05:28:50;;;;;;;0.20;0.20;;;;;;;4.05;53.53;94661.94;4966191;28;20275;-64
2023/01/28 05:31:17;;;;;;;0.00;0.00;;;;;;;4.04;53.81;94660.34;4964742;28;20199;-65
2023/01/28 05:33:44;;;;;;;0.00;0.00;;;;;;;4.06;53.93;94657.53;4953301;28;20208;-65
2023/01/28 05:36:12;;;;;;;0.00;0.00;;;;;;;4.04;53.39;94655.16;4965857;28;20206;-64
2023/01/28 05:38:39;;;;;;;0.00;0.00;;;;;;;4.16;53.42;94662.97;4961429;28;20223;-65
2023/01/28 05:41:06;;;;;;;0.13;0.13;;;;;;;4.07;53.46;94664.28;4963062;28;20195;-64
2023/01/28 05:43:35;;;;;;;0.55;0.52;;;;;;;3.99;53.45;94662.03;4984520;28;20208;-65
2023/01/28 05:46:25;;;;;;;0.28;0.28;;;;;;;3.85;54.03;94665.81;4968888;28;20246;-65
2023/01/28 05:49:16;;;;;;;0.10;0.10;;;;;;;3.55;53.61;94670.16;4969800;28;20231;-62
2023/01/28 05:51:56;;;;;;;0.00;0.00;;;;;;;3.95;53.32;94672.03;4969502;28;20536;-65
2023/01/28 05:54:23;;;;;;;0.00;0.00;;;;;;;4.19;52.74;94666.94;4952952;28;20228;-65
2023/01/28 05:56:50;;;;;;;0.10;0.10;;;;;;;3.57;53.81;94675.91;4983822;28;20226;-65
2023/01/28 05:59:17;;;;;;;0.00;0.00;;;;;;;3.77;53.88;94684.25;4964942;28;20204;-66
2023/01/28 06:01:47;;;;;;;0.22;0.22;;;;;;;3.95;53.47;94677.22;4960547;28;20204;-62
2023/01/28 06:04:17;;;;;;;0.70;0.47;;;;;;;3.65;54.06;94686.78;4963851;28;20270;-63
2023/01/28 06:06:45;;;;;;;0.00;0.00;;;;;;;3.90;53.63;94684.88;4961117;28;20651;-64
2023/01/28 06:09:12;;;;;;;0.10;0.10;;;;;;;3.94;53.36;94693.00;4964770;28;20275;-63
2023/01/28 06:11:38;;;;;;;0.00;0.00;;;;;;;3.86;53.43;94698.47;4949217;28;20204;-64
2023/01/28 06:14:06;;;;;;;1.23;1.05;;;;;;;4.06;53.05;94699.03;4960933;28;20539;-64
2023/01/28 06:17:05;;;;;;;0.00;0.00;;;;;;;3.82;53.54;94712.88;4974857;28;20572;-64
2023/01/28 06:19:37;;;;;;;0.00;0.00;;;;;;;3.97;53.23;94706.31;4969317;28;20230;-64
2023/01/28 06:22:05;;;;;;;0.20;0.20;;;;;;;3.79;53.72;94710.72;4959040;28;20235;-64
2023/01/28 06:24:32;;;;;;;0.08;0.08;;;;;;;4.21;52.73;94711.59;4964865;28;20195;-63
2023/01/28 06:26:58;;;;;;;0.60;0.55;;;;;;;3.98;53.38;94722.63;4960181;28;20192;-63
2023/01/28 06:29:25;;;;;;;4.68;0.70;;;;;;;4.03;53.40;94735.75;4960815;28;20679;-63
2023/01/28 06:31:52;;;;;;;0.10;0.10;;;;;;;4.14;53.25;94727.25;4958792;28;20234;-65
2023/01/28 06:34:19;;;;;;;0.00;0.00;;;;;;;3.87;53.20;94715.59;4969518;28;20662;-64
2023/01/28 06:36:46;;;;;;;0.28;0.28;;;;;;;4.15;52.75;94723.63;4960116;28;20223;-63
2023/01/28 06:39:13;;;;;;;0.00;0.00;;;;;;;4.57;52.07;94742.59;4969163;28;20557;-65
2023/01/28 06:41:40;;;;;;;1.75;1.00;;;;;;;4.39;52.33;94730.50;4961321;28;20199;-63
2023/01/28 06:44:07;;;;;;;0.35;0.35;;;;;;;3.86;53.45;94739.94;4971439;28;20277;-64
2023/01/28 06:46:34;;;;;;;0.10;0.10;;;;;;;3.34;54.87;94737.94;4966859;28;20281;-63
2023/01/28 06:49:01;;;;;;;0.00;0.00;;;;;;;4.14;53.02;94743.56;4972853;28;20219;-64
2023/01/28 06:51:28;;;;;;;0.25;0.25;;;;;;;4.02;53.33;94747.94;4961699;28;20231;-64
2023/01/28 06:53:55;;;;;;;0.10;0.10;;;;;;;3.86;53.56;94748.53;4972143;28;20635;-64
2023/01/28 06:56:22;;;;;;;3.40;2.13;;;;;;;3.79;53.91;94749.59;4963464;28;20196;-64
2023/01/28 06:58:48;;;;;;;0.20;0.20;;;;;;;3.61;53.68;94752.19;4972670;28;20195;-63
2023/01/28 07:01:16;;;;;;;0.00;0.00;;;;;;;3.69;53.80;94741.53;4964710;28;20234;-64
2023/01/28 07:03:42;;;;;;;0.50;0.50;;;;;;;4.00;53.66;94762.91;4972969;28;20729;-64
2023/01/28 07:06:09;;;;;;;0.00;0.00;;;;;;;3.89;53.21;94757.66;4966480;28;20716;-65
2023/01/28 07:08:36;;;;;;;0.10;0.10;;;;;;;4.29;52.37;94766.53;4972125;28;20231;-66
2023/01/28 07:11:03;;;;;;;0.00;0.00;;;;;;;3.98;52.95;94761.53;4968134;28;20228;-64
2023/01/28 07:13:30;;;;;;;0.20;0.20;;;;;;;3.60;54.19;94766.16;4972658;28;20207;-65
2023/01/28 07:15:57;;;;;;;0.05;0.05;;;;;;;4.23;52.82;94775.19;4969398;28;20200;-65
2023/01/28 07:18:24;;;;;;;0.00;0.00;;;;;;;4.59;52.02;94785.47;4972394;28;20198;-65
2023/01/28 07:20:51;;;;;;;0.00;0.00;;;;;;;4.09;52.58;94784.94;4971134;28;20191;-62
2023/01/28 07:23:18;;;;;;;0.00;0.00;;;;;;;4.07;53.11;94779.16;4972506;28;20665;-65
2023/01/28 07:25:45;;;;;;;0.52;0.52;;;;;;;4.12;52.75;94786.31;4969382;28;20199;-65
2023/01/28 07:28:12;;;;;;;1.48;1.17;;;;;;;4.29;52.57;94795.06;4966387;28;20254;-62
2023/01/28 07:30:39;;;;;;;2.40;0.52;;;;;;;4.35;52.50;94799.38;4971337;28;20231;-66
2023/01/28 07:33:06;;;;;;;0.40;0.40;;;;;;;4.17;52.67;94796.81;4970650;28;20259;-64
2023/01/28 07:35:34;;;;;;;0.73;0.73;;;;;;;3.99;52.66;94802.00;4971108;28;20203;-65
2023/01/28 07:38:01;;;;;;;0.00;0.00;;;;;;;3.54;54.19;94798.09;4961756;28;20262;-65
2023/01/28 07:40:28;;;;;;;2.50;1.08;;;;;;;3.96;52.68;94807.59;4971480;28;20701;-63
2023/01/28 07:42:58;;;;;;;0.00;0.00;;;;;;;4.20;52.99;94803.38;4967988;28;20257;-65
2023/01/28 07:45:35;;;;;;;0.00;0.00;;;;;;;4.52;51.96;94802.94;4975948;28;20212;-66
2023/01/28 07:48:06;;;;;;;1.88;1.33;;;;;;;4.10;52.67;94803.88;4969466;28;20199;-66
2023/01/28 07:50:35;;;;;;;1.33;1.23;;;;;;;4.35;51.94;94803.75;4970113;28;20227;-63
2023/01/28 07:53:06;;;;;;;0.20;0.20;;;;;;;4.56;51.52;94787.72;4970341;28;20726;-65
2023/01/28 07:55:36;;;;;;;0.65;0.65;;;;;;;4.24;52.33;94815.66;4969602;28;20846;-65
2023/01/28 07:58:05;;;;;;;0.00;0.00;;;;;;;4.41;51.90;94816.66;4970961;28;20199;-64
2023/01/28 08:00:34;;;;;;;0.32;0.32;;;;;;;4.69;52.70;94809.09;4970018;28;20278;-65
2023/01/28 08:03:11;;;;;;;0.08;0.08;;;;;;;5.06;52.18;94809.75;4966496;28;20698;-64
2023/01/28 08:05:45;;;;;;;1.85;1.00;;;;;;;5.22;50.67;94813.50;4964728;28;20203;-64
2023/01/28 08:08:14;;;;;;;0.00;0.00;;;;;;;4.88;50.87;94813.22;4967575;28;20591;-65
2023/01/28 08:10:42;;;;;;;0.10;0.10;;;;;;;5.13;50.64;94826.81;4970909;28;20266;-65
2023/01/28 08:13:12;;;;;;;0.28;0.28;;;;;;;4.02;52.32;94817.91;4971367;28;20228;-65
2023/01/28 08:15:39;;;;;;;2.63;1.75;;;;;;;4.80;51.02;94829.09;4961461;28;20424;-65
2023/01/28 08:18:08;;;;;;;0.00;0.00;;;;;;;4.66;51.13;94829.50;4967601;28;20290;-64
2023/01/28 08:20:35;;;;;;;0.38;0.38;;;;;;;4.64;51.30;94829.72;4969886;28;20203;-67
2023/01/28 08:23:16;;;;;;;1.55;0.43;;;;;;;4.56;51.68;94837.78;4969129;28;20209;-63
2023/01/28 08:25:44;;;;;;;1.02;1.00;;;;;;;4.17;52.00;94840.88;4958377;28;20213;-66
2023/01/28 08:28:12;;;;;;;0.00;0.00;;;;;;;4.37;51.89;94836.25;4968509;28;20223;-66
2023/01/28 08:30:39;;;;;;;0.90;0.55;;;;;;;4.71;51.22;94833.00;4970530;28;20262;-64
2023/01/28 08:33:09;;;;;;;0.43;0.43;;;;;;;4.47;51.35;94826.13;4966856;28;20258;-67
2023/01/28 08:35:36;;;;;;;2.50;1.85;;;;;;;4.43;53.01;94832.00;4970759;28;20231;-63
2023/01/28 08:38:05;;;;;;;0.55;0.55;;;;;;;5.27;51.00;94831.81;4969031;28;21890;-63
2023/01/28 08:40:32;;;;;;;1.13;1.02;;;;;;;4.76;50.90;94827.94;4970317;28;20564;-65
2023/01/28 08:42:59;;;;;;;0.05;0.05;;;;;;;4.64;51.51;94831.50;4969508;28;20289;-65
2023/01/28 08:45:27;;;;;;;0.00;0.00;;;;;;;4.77;51.34;94833.94;4960280;28;20196;-66
2023/01/28 08:47:55;;;;;;;0.22;0.22;;;;;;;5.30;50.31;94831.34;4955150;28;20199;-65
2023/01/28 08:50:24;;;;;;;0.00;0.00;;;;;;;4.64;51.34;94834.09;4970018;28;20680;-64
2023/01/28 08:53:01;;;;;;;0.28;0.28;;;;;;;5.01;50.64;94833.78;4960344;28;20595;-66
2023/01/28 08:55:30;;;;;;;0.38;0.38;;;;;;;5.33;50.42;94836.13;4970746;28;20199;-64
2023/01/28 08:57:56;;;;;;;0.03;0.03;;;;;;;4.62;50.71;94839.53;4961780;28;20199;-66
2023/01/28 09:00:24;;;;;;;0.45;0.40;;;;;;;5.18;50.41;94843.53;4969992;28;20207;-66
2023/01/28 09:02:52;;;;;;;0.30;0.30;;;;;;;5.08;50.02;94841.47;4964100;28;20705;-63
2023/01/28 09:05:22;;;;;;;7.57;1.77;;;;;;;5.24;50.09;94842.66;4970741;28;20203;-63
2023/01/28 09:07:50;;;;;;;0.00;0.00;;;;;;;5.37;48.99;94816.44;4969494;28;20277;-60
2023/01/28 09:10:19;;;;;;;0.47;0.35;;;;;;;5.38;49.57;94844.03;4977731;28;20813;-62
2023/01/28 09:12:46;;;;;;;0.00;0.00;;;;;;;4.84;50.21;94822.44;4969527;28;20199;-61
2023/01/28 09:15:13;;;;;;;3.40;1.02;;;;;;;5.49;50.54;94851.81;4971843;28;20199;-68
2023/01/28 09:17:41;;;;;;;0.60;0.60;;;;;;;6.26;50.11;94836.91;4966971;28;20237;-65
2023/01/28 09:20:11;;;;;;;1.63;1.52;;;;;;;6.38;48.47;94830.66;4970266;28;20207;-63
2023/01/28 09:22:41;;;;;;;0.45;0.30;;;;;;;6.28;47.47;94840.84;4969556;28;20206;-66
2023/01/28 09:25:08;;;;;;;1.25;1.20;;;;;;;5.27;49.58;94850.00;4969705;28;20193;-63
2023/01/28 09:27:35;;;;;;;0.00;0.00;;;;;;;5.34;49.31;94843.69;4968512;28;20671;-66
2023/01/28 09:30:02;;;;;;;0.57;0.57;;;;;;;5.39;49.69;94850.78;4969233;28;20767;-62
2023/01/28 09:32:30;;;;;;;0.00;0.00;;;;;;;5.48;49.09;94833.84;4984031;28;20239;-61
2023/01/28 09:34:57;;;;;;;0.20;0.20;;;;;;;5.64;48.97;94835.81;4969066;28;20195;-63
2023/01/28 09:37:24;;;;;;;0.32;0.32;;;;;;;5.63;49.53;94845.41;4961839;28;20206;-64
2023/01/28 09:39:51;;;;;;;0.13;0.13;;;;;;;5.32;49.36;94847.50;4968928;28;20261;-63
2023/01/28 09:42:48;;;;;;;0.65;0.65;;;;;;;5.81;49.01;94850.47;4961248;28;20200;-63
2023/01/28 09:45:22;;;;;;;4.32;1.67;;;;;;;5.66;48.38;94841.53;4956951;28;20265;-62
2023/01/28 09:47:59;;;;;;;0.00;0.00;;;;;;;5.46;49.42;94846.28;4959827;28;20203;-64
2023/01/28 09:50:43;;;;;;;1.77;1.63;;;;;;;5.82;48.95;94846.09;4968742;28;20599;-63
2023/01/28 09:53:21;;;;;;;0.80;0.68;;;;;;;5.36;49.81;94848.66;4962040;28;20199;-61
2023/01/28 09:55:54;;;;;;;4.22;1.45;;;;;;;5.48;49.43;94836.44;4968982;28;20211;-62
2023/01/28 09:58:21;;;;;;;0.30;0.30;;;;;;;5.46;49.19;94820.28;4964531;28;20195;-62
2023/01/28 10:01:03;;;;;;;0.03;0.03;;;;;;;5.82;48.95;94846.09;4968667;28;20555;-62
2023/01/28 10:03:42;;;;;;;0.28;0.28;;;;;;;5.38;49.72;94849.22;4965407;28;20222;-62
2023/01/28 10:06:41;;;;;;;0.25;0.25;;;;;;;5.81;50.45;94834.09;4968984;28;20198;-66
2023/01/28 10:09:33;;;;;;;0.45;0.45;;;;;;;5.78;49.68;94832.75;4968054;28;20227;-63
2023/01/28 10:12:13;;;;;;;1.17;0.85;;;;;;;5.61;49.73;94831.03;4967682;28;20678;-62
2023/01/28 10:15:08;;;;;;;0.50;0.50;;;;;;;5.81;49.65;94834.09;4969202;28;20293;-63
2023/01/28 10:17:46;;;;;;;3.30;2.28;;;;;;;5.67;49.18;94835.34;4961747;28;20254;-62
2023/01/28 10:20:35;;;;;;;1.00;0.68;;;;;;;5.50;49.98;94831.81;4970144;28;20285;-60
2023/01/28 10:23:14;;;;;;;0.80;0.80;;;;;;;5.54;49.34;94835.56;4963260;28;20212;-62
2023/01/28 10:25:44;;;;;;;0.22;0.22;;;;;;;6.07;48.94;94838.84;4959577;28;20202;-63
2023/01/28 10:28:19;;;;;;;0.00;0.00;;;;;;;5.57;49.82;94845.50;4960950;28;20562;-62
2023/01/28 10:30:47;;;;;;;0.00;0.00;;;;;;;5.78;49.95;94844.94;4972426;28;20280;-62
2023/01/28 10:33:17;;;;;;;0.05;0.05;;;;;;;5.48;50.07;94834.66;4963160;28;20258;-62
2023/01/28 10:35:44;;;;;;;1.55;1.35;;;;;;;5.02;51.02;94829.38;4970757;28;20199;-65
2023/01/28 10:38:19;;;;;;;4.50;2.17;;;;;;;5.92;51.85;94826.31;4963631;28;20199;-64
2023/01/28 10:40:46;;;;;;;0.32;0.32;;;;;;;6.25;49.10;94825.69;4971941;28;20210;-63
2023/01/28 10:43:34;;;;;;;0.82;0.82;;;;;;;6.21;49.44;94818.56;4969628;28;20677;-62
2023/01/28 10:46:08;;;;;;;0.73;0.73;;;;;;;6.47;48.47;94833.66;4971934;28;20274;-62
2023/01/28 10:49:21;;;;;;;1.85;1.75;;;;;;;5.73;48.98;94831.84;4967976;28;20282;-65
2023/01/28 10:51:48;;;;;;;0.57;0.40;;;;;;;6.12;49.31;94825.94;4960927;28;20283;-62
2023/01/28 10:54:26;;;;;;;0.45;0.45;;;;;;;6.25;48.89;94823.09;4969245;28;20221;-62
2023/01/28 10:57:17;;;;;;;2.47;0.93;;;;;;;5.97;48.52;94833.41;4971262;28;20195;-63
2023/01/28 10:59:44;;;;;;;0.00;0.00;;;;;;;6.03;49.13;94827.31;4973431;28;20683;-63
2023/01/28 11:02:31;;;;;;;0.15;0.15;;;;;;;6.27;48.25;94821.06;4969648;28;20568;-63
2023/01/28 11:05:24;;;;;;;0.22;0.22;;;;;;;5.90;49.06;94811.94;4967730;28;20202;-62
2023/01/28 11:08:16;;;;;;;0.00;0.00;;;;;;;6.54;47.76;94824.69;4965175;28;20259;-60
2023/01/28 11:10:45;;;;;;;0.00;0.00;;;;;;;6.51;48.26;94822.56;4964527;28;20227;-62
2023/01/28 11:13:19;;;;;;;3.05;1.65;;;;;;;6.63;48.44;94832.94;4964900;28;20211;-65
2023/01/28 11:16:10;;;;;;;1.20;1.17;;;;;;;6.35;47.47;94831.09;4971370;28;20282;-63
2023/01/28 11:18:49;;;;;;;0.32;0.32;;;;;;;6.36;47.53;94822.28;4965277;28;20207;-63
2023/01/28 11:21:23;;;;;;;0.95;0.95;;;;;;;6.78;47.32;94813.19;4971552;28;20301;-62
2023/01/28 11:23:50;;;;;;;0.10;0.10;;;;;;;6.43;47.23;94822.94;4967453;28;20721;-63
2023/01/28 11:26:20;;;;;;;0.75;0.75;;;;;;;6.71;47.08;94820.34;4969784;28;20211;-64
2023/01/28 11:28:47;;;;;;;0.00;0.00;;;;;;;6.10;48.07;94812.38;4967042;28;20578;-61
2023/01/28 11:31:16;;;;;;;0.22;0.22;;;;;;;6.31;47.54;94816.19;4970805;28;20659;-69
2023/01/28 11:33:53;;;;;;;0.50;0.25;;;;;;;6.33;47.38;94812.34;4969051;28;20203;-62
2023/01/28 11:36:29;;;;;;;0.10;0.10;;;;;;;6.17;48.01;94805.22;4970762;28;20202;-65
2023/01/28 11:39:04;;;;;;;1.48;0.75;;;;;;;6.03;48.09;94811.72;4970284;28;20229;-62
2023/01/28 11:41:35;;;;;;;0.05;0.05;;;;;;;6.62;47.67;94806.13;4971096;28;20675;-62
2023/01/28 11:44:21;;;;;;;0.00;0.00;;;;;;;6.35;47.12;94815.47;4967529;28;20214;-62
2023/01/28 11:47:03;;;;;;;0.05;0.05;;;;;;;6.12;47.46;94810.34;4958933;28;20372;-63
2023/01/28 11:49:46;;;;;;;1.65;1.40;;;;;;;6.25;47.24;94812.69;4968968;28;20195;-64
2023/01/28 11:52:41;;;;;;;0.00;0.00;;;;;;;6.10;47.67;94814.97;4972060;28;20261;-64
2023/01/28 11:55:48;;;;;;;0.10;0.10;;;;;;;6.37;47.21;94807.47;4962398;28;20799;-63
2023/01/28 11:58:45;;;;;;;0.00;0.00;;;;;;;6.28;47.13;94807.00;4964336;28;20270;-65
2023/01/28 12:01:44;;;;;;;0.00;0.00;;;;;;;6.79;46.11;94806.94;4970510;28;20199;-63
2023/01/28 12:04:23;;;;;;;0.08;0.08;;;;;;;6.86;46.86;94806.81;4975826;28;20224;-63
2023/01/28 12:07:11;;;;;;;1.08;0.32;;;;;;;7.14;46.45;94810.16;4968995;28;20286;-63
2023/01/28 12:10:05;;;;;;;2.65;1.25;;;;;;;6.94;46.82;94804.59;4966491;28;20642;-63
2023/01/28 12:12:58;;;;;;;0.20;0.20;;;;;;;7.09;45.80;94812.69;4967095;28;20249;-63
2023/01/28 12:15:40;;;;;;;0.10;0.10;;;;;;;7.11;45.92;94810.63;4969393;28;20199;-61
2023/01/28 12:18:19;;;;;;;0.68;0.50;;;;;;;6.60;45.96;94818.56;4967490;28;20683;-63
2023/01/28 12:21:08;;;;;;;0.45;0.45;;;;;;;7.49;45.41;94806.50;4970061;28;20195;-64
2023/01/28 12:23:51;;;;;;;0.35;0.35;;;;;;;6.93;46.25;94805.59;4967959;28;20213;-64
2023/01/28 12:26:29;;;;;;;0.03;0.03;;;;;;;7.02;45.79;94814.66;4969029;28;20294;-61
2023/01/28 12:29:11;;;;;;;0.00;0.00;;;;;;;7.04;45.35;94804.00;4965549;28;20562;-65
2023/01/28 12:32:01;;;;;;;0.20;0.20;;;;;;;6.85;46.09;94808.63;4970085;28;20257;-63
2023/01/28 12:35:06;;;;;;;0.22;0.22;;;;;;;6.67;46.27;94803.59;4967416;28;20195;-61
2023/01/28 12:38:06;;;;;;;2.08;1.10;;;;;;;6.80;47.16;94818.94;4962751;28;20202;-62
2023/01/28 12:40:54;;;;;;;0.00;0.00;;;;;;;6.91;46.49;94818.09;4958312;28;20203;-61
2023/01/28 12:43:41;;;;;;;0.65;0.52;;;;;;;6.94;45.42;94820.22;4957850;28;20204;-62
2023/01/28 12:46:29;;;;;;;1.08;0.75;;;;;;;7.21;45.13;94820.41;4961042;28;20703;-62